Time;durP1;ratioP1;P1;durP2;ratioP2;P2;SDS_P1;SDS_P2;PMS_P1;PMS_P2;Temp;Humidity;BMP_temperature;BMP_pressure;BME280_temperature;BME280_humidity;BME280_pressure;Samples;Min_cycle;Max_cycle;Signal;HPM_P1;HPM_P2
2024/01/24 00:01:56;;;;;;;;;;;;;;;11.47;45.38;100912.97;4931356;28;98305;-66
2024/01/24 00:04:22;;;;;;;;;;;;;;;11.48;45.38;100908.41;4926265;28;98360;-65
2024/01/24 00:06:49;;;;;;;;;;;;;;;11.49;45.33;100907.31;4940201;28;98505;-73
2024/01/24 00:09:15;;;;;;;;;;;;;;;11.48;45.34;100895.72;4931313;28;98628;-70
2024/01/24 00:11:41;;;;;;;;;;;;;;;11.50;45.43;100881.94;4932333;28;103248;-65
2024/01/24 00:14:07;;;;;;;;;;;;;;;11.50;45.35;100890.84;4927984;28;98042;-73
2024/01/24 00:16:33;;;;;;;;;;;;;;;11.50;45.36;100871.13;4949369;28;98045;-73
2024/01/24 00:18:59;;;;;;;;;;;;;;;11.51;45.41;100860.09;4962223;28;98086;-72
2024/01/24 00:21:25;;;;;;;;;;;;;;;11.52;45.38;100855.50;4952681;28;102259;-73
2024/01/24 00:23:51;;;;;;;;;;;;;;;11.52;45.62;100842.00;4944474;28;113339;-65
2024/01/24 00:26:17;;;;;;;;;;;;;;;11.53;45.33;100830.13;4925543;28;98752;-73
2024/01/24 00:28:43;;;;;;;;;;;;;;;11.53;45.41;100830.13;4928936;28;98038;-65
2024/01/24 00:31:10;;;;;;;;;;;;;;;11.54;45.36;100831.75;4946368;28;100001;-65
2024/01/24 00:33:36;;;;;;;;;;;;;;;11.53;45.50;100816.63;4928107;28;98467;-65
2024/01/24 00:36:02;;;;;;;;;;;;;;;11.53;45.45;100808.53;4946441;28;98309;-72
2024/01/24 00:38:28;;;;;;;;;;;;;;;11.54;45.43;100813.66;4928932;28;98945;-65
2024/01/24 00:40:54;;;;;;;;;;;;;;;11.54;45.43;100794.75;4928376;28;98340;-66
2024/01/24 00:43:21;;;;;;;;;;;;;;;11.55;45.37;100796.41;4929789;28;99983;-72
2024/01/24 00:45:47;;;;;;;;;;;;;;;11.55;45.43;100787.47;4946799;28;98291;-66
2024/01/24 00:48:14;;;;;;;;;;;;;;;11.54;45.46;100775.84;4930869;28;99312;-65
2024/01/24 00:50:40;;;;;;;;;;;;;;;11.55;45.36;100768.56;4961503;28;98877;-65
2024/01/24 00:53:06;;;;;;;;;;;;;;;11.55;45.30;100772.09;4934630;28;107894;-65
2024/01/24 00:55:33;;;;;;;;;;;;;;;11.55;45.46;100755.91;4934178;28;98637;-72
2024/01/24 00:57:59;;;;;;;;;;;;;;;11.56;45.63;100759.41;4937279;28;98111;-65
2024/01/24 01:00:25;;;;;;;;;;;;;;;11.57;45.46;100755.63;4925739;28;98196;-72
2024/01/24 01:02:51;;;;;;;;;;;;;;;11.55;45.20;100736.16;4938626;28;98192;-72
2024/01/24 01:05:17;;;;;;;;;;;;;;;11.55;45.51;100726.19;4941146;28;98509;-72
2024/01/24 01:07:43;;;;;;;;;;;;;;;11.56;45.35;100721.59;4926923;28;98335;-72
2024/01/24 01:10:10;;;;;;;;;;;;;;;11.56;45.24;100708.09;4926592;28;98647;-72
2024/01/24 01:12:36;;;;;;;;;;;;;;;11.56;45.66;100705.41;4927052;28;98125;-66
2024/01/24 01:15:03;;;;;;;;;;;;;;;11.55;45.40;100712.69;4946756;28;98010;-65
2024/01/24 01:17:29;;;;;;;;;;;;;;;11.56;45.42;100697.31;4926558;28;99010;-72
2024/01/24 01:19:55;;;;;;;;;;;;;;;11.55;45.37;100687.56;4927124;28;109723;-72
2024/01/24 01:22:21;;;;;;;;;;;;;;;11.57;45.45;100690.03;4942035;28;126605;-65
2024/01/24 01:24:48;;;;;;;;;;;;;;;11.57;45.44;100681.91;4923674;28;98252;-66
2024/01/24 01:27:14;;;;;;;;;;;;;;;11.57;45.53;100673.81;4944498;28;98236;-72
2024/01/24 01:29:40;;;;;;;;;;;;;;;11.56;45.50;100648.72;4941335;28;98469;-65
2024/01/24 01:32:06;;;;;;;;;;;;;;;11.55;45.46;100639.81;4928503;28;98284;-72
2024/01/24 01:34:32;;;;;;;;;;;;;;;11.57;45.46;100639.53;4926932;28;98369;-65
2024/01/24 01:36:58;;;;;;;;;;;;;;;11.57;45.40;100646.81;4940162;28;97751;-72
2024/01/24 01:39:24;;;;;;;;;;;;;;;11.57;45.50;100615.22;4921576;28;98254;-72
2024/01/24 01:41:50;;;;;;;;;;;;;;;11.58;45.72;100613.34;4923740;28;98075;-65
2024/01/24 01:44:17;;;;;;;;;;;;;;;11.56;45.56;100605.50;4943831;28;130386;-65
2024/01/24 01:46:45;;;;;;;;;;;;;;;11.57;45.51;100592.81;4926615;28;98427;-72
2024/01/24 01:49:11;;;;;;;;;;;;;;;11.56;45.50;100594.72;4956860;28;98438;-65
2024/01/24 01:51:37;;;;;;;;;;;;;;;11.57;45.60;100582.03;4927137;28;98064;-66
2024/01/24 01:54:03;;;;;;;;;;;;;;;11.57;45.41;100577.44;4924230;28;98848;-65
2024/01/24 01:56:29;;;;;;;;;;;;;;;11.58;45.56;100564.75;4940124;28;98246;-72
2024/01/24 01:58:55;;;;;;;;;;;;;;;11.57;45.41;100558.53;4942278;28;98101;-72
2024/01/24 02:01:22;;;;;;;;;;;;;;;11.59;45.46;100552.84;4923474;28;99794;-66
2024/01/24 02:03:48;;;;;;;;;;;;;;;11.58;45.38;100549.34;4926019;28;99829;-65
2024/01/24 02:06:14;;;;;;;;;;;;;;;11.58;45.43;100521.53;4925112;28;98942;-66
2024/01/24 02:08:42;;;;;;;;;;;;;;;11.58;45.53;100535.03;4925266;28;99784;-66
2024/01/24 02:11:09;;;;;;;;;;;;;;;11.59;45.53;100515.06;4935588;28;98439;-66
2024/01/24 02:13:35;;;;;;;;;;;;;;;11.60;45.56;100524.78;4930350;28;99509;-66
2024/01/24 02:16:06;;;;;;;;;;;;;;;11.60;45.50;100509.41;4923679;28;98286;-66
2024/01/24 02:18:32;;;;;;;;;;;;;;;11.60;45.65;100503.19;4944530;28;98669;-72
2024/01/24 02:20:59;;;;;;;;;;;;;;;11.59;45.64;100483.47;4938230;28;99012;-65
2024/01/24 02:23:26;;;;;;;;;;;;;;;11.60;45.58;100478.91;4922700;28;99092;-72
2024/01/24 02:25:52;;;;;;;;;;;;;;;11.59;45.44;100491.56;4940326;28;99055;-72
2024/01/24 02:28:19;;;;;;;;;;;;;;;11.60;45.62;100463.50;4939978;28;98554;-65
2024/01/24 02:30:45;;;;;;;;;;;;;;;11.61;45.49;100478.63;4920770;28;98069;-72
2024/01/24 02:33:12;;;;;;;;;;;;;;;11.61;45.50;100475.91;4926710;28;99885;-66
2024/01/24 02:35:38;;;;;;;;;;;;;;;11.61;45.59;100467.81;4922689;28;99210;-66
2024/01/24 02:38:04;;;;;;;;;;;;;;;11.61;45.57;100450.81;4924227;28;98708;-72
2024/01/24 02:40:30;;;;;;;;;;;;;;;11.62;45.52;100441.63;4924115;28;100115;-72
2024/01/24 02:42:56;;;;;;;;;;;;;;;11.63;45.27;100448.63;4924881;28;99468;-72
2024/01/24 02:45:23;;;;;;;;;;;;;;;11.62;45.64;100436.22;4924167;28;99816;-66
2024/01/24 02:47:49;;;;;;;;;;;;;;;11.64;45.60;100412.47;4942997;28;97993;-66
2024/01/24 02:50:16;;;;;;;;;;;;;;;11.64;45.68;100424.06;4941468;28;98565;-72
2024/01/24 02:52:42;;;;;;;;;;;;;;;11.64;45.49;100378.19;4944888;28;97978;-66
2024/01/24 02:55:12;;;;;;;;;;;;;;;11.65;45.47;100395.97;4924856;28;98357;-73
2024/01/24 02:57:38;;;;;;;;;;;;;;;11.66;45.63;100394.09;4930347;28;98005;-73
2024/01/24 03:00:07;;;;;;;;;;;;;;;11.65;45.59;100374.38;4923813;28;97973;-65
2024/01/24 03:02:33;;;;;;;;;;;;;;;11.66;45.64;100359.00;4927302;28;98098;-66
2024/01/24 03:04:59;;;;;;;;;;;;;;;11.67;45.65;100379.50;4929618;28;98271;-66
2024/01/24 03:07:26;;;;;;;;;;;;;;;11.67;45.47;100369.53;4943891;28;98106;-65
2024/01/24 03:09:53;;;;;;;;;;;;;;;11.70;45.57;100381.66;4953321;28;100262;-72
2024/01/24 03:12:19;;;;;;;;;;;;;;;11.69;45.59;100348.44;4926061;28;97971;-65
2024/01/24 03:14:46;;;;;;;;;;;;;;;11.71;45.63;100350.84;4929107;28;98130;-66
2024/01/24 03:17:12;;;;;;;;;;;;;;;11.71;45.55;100343.59;4942855;28;98057;-66
2024/01/24 03:19:38;;;;;;;;;;;;;;;11.73;45.56;100337.91;4922758;28;98211;-73
2024/01/24 03:22:04;;;;;;;;;;;;;;;11.73;45.56;100338.69;4924090;28;98035;-65
2024/01/24 03:24:31;;;;;;;;;;;;;;;11.74;45.56;100323.31;4925787;28;98080;-72
2024/01/24 03:26:57;;;;;;;;;;;;;;;11.76;45.48;100313.03;4944260;28;98346;-66
2024/01/24 03:29:23;;;;;;;;;;;;;;;11.76;45.44;100313.03;4922101;28;99909;-73
2024/01/24 03:31:49;;;;;;;;;;;;;;;11.77;45.48;100304.66;4938221;28;100070;-65
2024/01/24 03:34:16;;;;;;;;;;;;;;;11.78;45.71;100303.56;4922698;28;115310;-73
2024/01/24 03:36:42;;;;;;;;;;;;;;;11.80;45.56;100306.81;4943604;28;98154;-73
2024/01/24 03:39:12;;;;;;;;;;;;;;;11.82;45.55;100319.22;4925196;28;101672;-73
2024/01/24 03:41:38;;;;;;;;;;;;;;;11.83;45.50;100320.81;4922431;28;98141;-66
2024/01/24 03:44:05;;;;;;;;;;;;;;;11.84;45.42;100336.00;4923725;28;99316;-73
2024/01/24 03:46:31;;;;;;;;;;;;;;;11.85;45.59;100294.38;4942024;28;98073;-66
2024/01/24 03:48:58;;;;;;;;;;;;;;;11.86;45.54;100321.09;4938710;28;98360;-73
2024/01/24 03:51:24;;;;;;;;;;;;;;;11.87;45.75;100301.13;4924442;28;103851;-72
2024/01/24 03:53:50;;;;;;;;;;;;;;;11.89;45.53;100287.34;4923998;28;98519;-66
2024/01/24 03:56:17;;;;;;;;;;;;;;;11.90;45.58;100305.16;4937862;28;99462;-65
2024/01/24 03:58:43;;;;;;;;;;;;;;;11.91;45.57;100296.78;4937313;28;99551;-73
2024/01/24 04:01:10;;;;;;;;;;;;;;;11.93;45.72;100293.78;4920365;28;98402;-71
2024/01/24 04:03:36;;;;;;;;;;;;;;;11.94;45.77;100296.19;4928640;28;99249;-73
2024/01/24 04:06:02;;;;;;;;;;;;;;;11.95;45.49;100287.03;4941964;28;98466;-73
2024/01/24 04:08:28;;;;;;;;;;;;;;;11.97;45.72;100295.66;4927857;28;101925;-65
2024/01/24 04:10:55;;;;;;;;;;;;;;;11.98;45.62;100281.03;4923002;28;98127;-73
2024/01/24 04:13:21;;;;;;;;;;;;;;;11.99;45.55;100276.47;4941589;28;98091;-73
2024/01/24 04:15:47;;;;;;;;;;;;;;;12.02;45.68;100284.00;4922946;28;98318;-65
2024/01/24 04:18:14;;;;;;;;;;;;;;;12.03;45.65;100281.03;4939700;28;99469;-66
2024/01/24 04:20:40;;;;;;;;;;;;;;;12.06;45.53;100278.84;4936941;28;98201;-65
2024/01/24 04:23:06;;;;;;;;;;;;;;;12.07;45.67;100280.47;4936720;28;98668;-65
2024/01/24 04:25:32;;;;;;;;;;;;;;;12.08;45.68;100279.38;4924559;28;101044;-66
2024/01/24 04:27:59;;;;;;;;;;;;;;;12.10;45.68;100277.19;4927046;28;98198;-65
2024/01/24 04:30:25;;;;;;;;;;;;;;;12.12;45.79;100293.94;4925343;28;99525;-66
2024/01/24 04:32:51;;;;;;;;;;;;;;;12.13;45.69;100285.53;4947207;28;98178;-65
2024/01/24 04:35:19;;;;;;;;;;;;;;;12.16;45.54;100246.34;4932598;28;98241;-72
2024/01/24 04:37:46;;;;;;;;;;;;;;;12.17;45.56;100251.47;4931491;28;99715;-73
2024/01/24 04:40:12;;;;;;;;;;;;;;;12.18;45.77;100249.56;4943315;28;99452;-73
2024/01/24 04:42:38;;;;;;;;;;;;;;;12.19;45.69;100235.78;4926326;28;98740;-73
2024/01/24 04:45:04;;;;;;;;;;;;;;;12.22;45.61;100245.19;4925814;28;99090;-66
2024/01/24 04:47:31;;;;;;;;;;;;;;;12.23;45.72;100250.34;4930086;28;98109;-72
2024/01/24 04:49:57;;;;;;;;;;;;;;;12.24;45.92;100249.25;4943941;28;98107;-66
2024/01/24 04:52:24;;;;;;;;;;;;;;;12.27;45.51;100253.28;4925059;28;99525;-66
2024/01/24 04:54:51;;;;;;;;;;;;;;;12.28;45.61;100225.97;4926400;28;98551;-66
2024/01/24 04:57:17;;;;;;;;;;;;;;;12.30;45.95;100225.69;4923385;28;99437;-66
2024/01/24 04:59:43;;;;;;;;;;;;;;;12.31;45.62;100216.50;4926607;28;98394;-72
2024/01/24 05:02:09;;;;;;;;;;;;;;;12.32;45.75;100207.28;4926555;28;115933;-72
2024/01/24 05:04:36;;;;;;;;;;;;;;;12.34;45.52;100217.81;4929731;28;98167;-66
2024/01/24 05:07:02;;;;;;;;;;;;;;;12.36;45.48;100202.94;4944459;28;98719;-72
2024/01/24 05:09:28;;;;;;;;;;;;;;;12.38;45.63;100202.63;4923089;28;99714;-66
2024/01/24 05:11:55;;;;;;;;;;;;;;;12.38;45.56;100200.75;4925670;28;100037;-72
2024/01/24 05:14:21;;;;;;;;;;;;;;;12.40;45.64;100205.88;4943638;28;98040;-73
2024/01/24 05:16:49;;;;;;;;;;;;;;;12.40;45.49;100206.66;4927595;28;98162;-72
2024/01/24 05:19:15;;;;;;;;;;;;;;;12.41;45.56;100205.56;4957173;28;99761;-73
2024/01/24 05:21:42;;;;;;;;;;;;;;;12.44;45.75;100198.78;4944024;28;98356;-65
2024/01/24 05:24:09;;;;;;;;;;;;;;;12.44;45.79;100191.50;4941281;28;98092;-72
2024/01/24 05:26:36;;;;;;;;;;;;;;;12.45;45.85;100197.69;4920597;28;98253;-72
2024/01/24 05:29:03;;;;;;;;;;;;;;;12.47;45.64;100192.81;4941274;28;98000;-72
2024/01/24 05:31:29;;;;;;;;;;;;;;;12.48;45.61;100197.13;4940904;28;98288;-73
2024/01/24 05:33:55;;;;;;;;;;;;;;;12.50;45.57;100211.19;4927211;28;99863;-66
2024/01/24 05:36:22;;;;;;;;;;;;;;;12.51;45.65;100191.16;4939927;28;98266;-72
2024/01/24 05:38:48;;;;;;;;;;;;;;;12.53;45.75;100191.66;4929029;28;99035;-66
2024/01/24 05:41:14;;;;;;;;;;;;;;;12.53;45.61;100197.88;4941404;28;99248;-67
2024/01/24 05:43:40;;;;;;;;;;;;;;;12.55;45.63;100177.88;4936031;28;99309;-73
2024/01/24 05:46:06;;;;;;;;;;;;;;;12.56;45.80;100182.19;4927143;28;98197;-72
2024/01/24 05:48:33;;;;;;;;;;;;;;;12.57;45.84;100171.06;4931183;28;98149;-65
2024/01/24 05:50:59;;;;;;;;;;;;;;;12.58;45.81;100172.69;4919105;28;98705;-66
2024/01/24 05:53:25;;;;;;;;;;;;;;;12.59;45.79;100154.59;4918456;28;98211;-74
2024/01/24 05:55:51;;;;;;;;;;;;;;;12.60;45.85;100159.69;4923507;28;99086;-73
2024/01/24 05:58:18;;;;;;;;;;;;;;;12.62;45.57;100149.41;4919127;28;100254;-66
2024/01/24 06:00:44;;;;;;;;;;;;;;;12.62;45.78;100141.28;4923520;28;98659;-72
2024/01/24 06:03:11;;;;;;;;;;;;;;;12.64;45.72;100165.31;4919759;28;99054;-73
2024/01/24 06:05:37;;;;;;;;;;;;;;;12.65;45.63;100158.81;4936724;28;98310;-73
2024/01/24 06:08:05;;;;;;;;;;;;;;;12.67;45.99;100154.75;4940088;28;98202;-73
2024/01/24 06:10:31;;;;;;;;;;;;;;;12.68;45.68;100137.41;4934966;28;98266;-66
2024/01/24 06:12:57;;;;;;;;;;;;;;;12.70;45.65;100126.31;4940598;28;98447;-73
2024/01/24 06:15:23;;;;;;;;;;;;;;;12.70;45.84;100137.94;4935862;28;100364;-67
2024/01/24 06:17:49;;;;;;;;;;;;;;;12.72;45.72;100157.38;4932674;28;103785;-73
2024/01/24 06:20:17;;;;;;;;;;;;;;;12.71;45.98;100131.44;4933793;28;98118;-66
2024/01/24 06:22:44;;;;;;;;;;;;;;;12.72;46.01;100129.53;4934059;28;98208;-66
2024/01/24 06:25:10;;;;;;;;;;;;;;;12.71;45.82;100098.97;4930972;28;98609;-66
2024/01/24 06:27:37;;;;;;;;;;;;;;;12.70;46.05;100110.91;4920353;28;100212;-66
2024/01/24 06:30:05;;;;;;;;;;;;;;;12.69;45.72;100109.31;4937812;28;98313;-66
2024/01/24 06:32:31;;;;;;;;;;;;;;;12.68;45.90;100115.78;4919367;28;98223;-68
2024/01/24 06:34:58;;;;;;;;;;;;;;;12.68;45.99;100101.47;4936619;28;100360;-66
2024/01/24 06:37:24;;;;;;;;;;;;;;;12.67;46.06;100091.75;4918402;28;98245;-66
2024/01/24 06:39:51;;;;;;;;;;;;;;;12.67;45.74;100089.84;4927917;28;99124;-73
2024/01/24 06:42:17;;;;;;;;;;;;;;;12.66;45.76;100103.66;4938974;28;98472;-66
2024/01/24 06:44:43;;;;;;;;;;;;;;;12.65;45.92;100092.03;4938538;28;98200;-66
2024/01/24 06:47:10;;;;;;;;;;;;;;;12.64;45.87;100071.50;4940099;28;99504;-66
2024/01/24 06:49:36;;;;;;;;;;;;;;;12.65;45.93;100083.09;4923820;28;98335;-66
2024/01/24 06:52:02;;;;;;;;;;;;;;;12.64;45.68;100092.31;4937198;28;98191;-67
2024/01/24 06:54:29;;;;;;;;;;;;;;;12.64;45.69;100085.00;4929420;28;98083;-73
2024/01/24 06:56:54;;;;;;;;;;;;;;;12.65;45.92;100107.44;4941999;28;99471;-66
2024/01/24 06:59:21;;;;;;;;;;;;;;;12.64;45.95;100097.72;4942128;28;98159;-73
2024/01/24 07:01:47;;;;;;;;;;;;;;;12.63;45.70;100078.00;4956030;28;97984;-66
2024/01/24 07:04:13;;;;;;;;;;;;;;;12.63;46.03;100082.59;4937492;28;98454;-73
2024/01/24 07:06:39;;;;;;;;;;;;;;;12.62;46.00;100103.44;4921089;28;97987;-68
2024/01/24 07:09:06;;;;;;;;;;;;;;;12.63;45.92;100096.13;4928679;28;98614;-71
2024/01/24 07:11:32;;;;;;;;;;;;;;;12.63;45.76;100107.75;4942982;28;98566;-66
2024/01/24 07:13:58;;;;;;;;;;;;;;;12.65;46.00;100104.75;4930153;28;100157;-73
2024/01/24 07:16:24;;;;;;;;;;;;;;;12.65;45.92;100097.44;4919046;28;100063;-72
2024/01/24 07:18:50;;;;;;;;;;;;;;;12.67;45.68;100106.06;4925541;28;106541;-74
2024/01/24 07:21:16;;;;;;;;;;;;;;;12.69;45.94;100084.97;4928853;28;98551;-66
2024/01/24 07:23:42;;;;;;;;;;;;;;;12.71;46.04;100085.47;4923408;28;119835;-68
2024/01/24 07:26:08;;;;;;;;;;;;;;;12.76;45.70;100069.16;4944226;28;98375;-66
2024/01/24 07:28:35;;;;;;;;;;;;;;;12.78;46.03;100074.28;4956946;28;98197;-66
2024/01/24 07:31:02;;;;;;;;;;;;;;;12.79;46.03;100086.72;4926131;28;98233;-73
2024/01/24 07:33:28;;;;;;;;;;;;;;;12.80;45.55;100082.91;4926699;28;98117;-73
2024/01/24 07:35:55;;;;;;;;;;;;;;;12.81;45.68;100084.53;4931874;28;98051;-66
2024/01/24 07:38:20;;;;;;;;;;;;;;;12.83;45.98;100084.25;4928528;28;99107;-73
2024/01/24 07:40:47;;;;;;;;;;;;;;;12.88;45.61;100074.13;4929252;28;113941;-66
2024/01/24 07:43:15;;;;;;;;;;;;;;;12.88;45.98;100079.56;4947187;28;98476;-66
2024/01/24 07:45:41;;;;;;;;;;;;;;;12.91;45.59;100073.56;4925194;28;98433;-73
2024/01/24 07:48:13;;;;;;;;;;;;;;;12.93;45.63;100076.78;4923845;28;98186;-67
2024/01/24 07:50:41;;;;;;;;;;;;;;;13.01;45.71;100084.25;4926060;28;98502;-74
2024/01/24 07:53:07;;;;;;;;;;;;;;;13.10;45.67;100072.78;4939962;28;98358;-73
2024/01/24 07:55:33;;;;;;;;;;;;;;;13.13;45.90;100091.94;4924633;28;98193;-73
2024/01/24 07:57:59;;;;;;;;;;;;;;;13.21;45.46;100063.41;4925468;28;98105;-67
2024/01/24 08:00:26;;;;;;;;;;;;;;;13.22;45.50;100078.53;4923101;28;98309;-74
2024/01/24 08:02:52;;;;;;;;;;;;;;;13.20;45.91;100083.44;4940370;27;98266;-66
2024/01/24 08:05:18;;;;;;;;;;;;;;;13.19;45.63;100106.97;4930363;28;102200;-66
2024/01/24 08:07:44;;;;;;;;;;;;;;;13.19;45.50;100106.19;4928339;28;97839;-66
2024/01/24 08:10:10;;;;;;;;;;;;;;;13.19;45.67;100109.69;4926005;28;98013;-66
2024/01/24 08:12:40;;;;;;;;;;;;;;;13.19;45.94;100114.28;4961097;28;98420;-67
2024/01/24 08:15:06;;;;;;;;;;;;;;;13.19;45.70;100115.09;4931714;28;98271;-73
2024/01/24 08:17:34;;;;;;;;;;;;;;;13.21;45.89;100128.34;4926489;28;98737;-67
2024/01/24 08:20:03;;;;;;;;;;;;;;;13.21;45.92;100131.06;4944640;28;98062;-66
2024/01/24 08:22:30;;;;;;;;;;;;;;;13.26;45.70;100118.28;4930590;28;99713;-73
2024/01/24 08:24:57;;;;;;;;;;;;;;;13.27;45.51;100122.59;4933242;28;98290;-66
2024/01/24 08:27:23;;;;;;;;;;;;;;;13.31;45.92;100122.00;4927704;28;98238;-66
2024/01/24 08:29:49;;;;;;;;;;;;;;;13.36;45.58;100127.34;4928538;28;98093;-73
2024/01/24 08:32:15;;;;;;;;;;;;;;;13.38;45.61;100136.78;4929798;28;98076;-66
2024/01/24 08:34:41;;;;;;;;;;;;;;;13.46;45.82;100110.94;4923917;28;98415;-66
2024/01/24 08:37:08;;;;;;;;;;;;;;;13.65;45.45;100116.34;4931271;28;97825;-66
2024/01/24 08:39:34;;;;;;;;;;;;;;;13.96;45.43;100116.63;4924622;28;98157;-73
2024/01/24 08:42:00;;;;;;;;;;;;;;;14.08;44.97;100110.72;4930943;28;117326;-73
2024/01/24 08:44:27;;;;;;;;;;;;;;;14.16;44.98;100115.44;4929037;28;98089;-66
2024/01/24 08:46:53;;;;;;;;;;;;;;;14.59;45.00;100110.56;4927883;28;100661;-66
2024/01/24 08:49:19;;;;;;;;;;;;;;;16.18;43.40;100113.91;4928141;28;99619;-73
2024/01/24 08:51:45;;;;;;;;;;;;;;;17.37;42.94;100115.66;4927699;28;98462;-67
2024/01/24 08:54:12;;;;;;;;;;;;;;;17.63;43.39;100118.34;4949454;28;98715;-74
2024/01/24 08:56:39;;;;;;;;;;;;;;;17.74;43.66;100112.56;4944471;28;103649;-74
2024/01/24 08:59:07;;;;;;;;;;;;;;;18.52;43.01;100117.81;4927685;28;98031;-74
2024/01/24 09:01:33;;;;;;;;;;;;;;;18.40;43.68;100123.94;4967352;28;98187;-67
2024/01/24 09:03:59;;;;;;;;;;;;;;;18.91;43.32;100132.22;4938284;28;97829;-67
2024/01/24 09:06:25;;;;;;;;;;;;;;;20.35;42.02;100135.06;4935308;28;98387;-73
2024/01/24 09:08:52;;;;;;;;;;;;;;;20.21;42.77;100131.09;4939139;28;115028;-73
2024/01/24 09:11:22;;;;;;;;;;;;;;;21.47;41.75;100131.13;4929419;28;101619;-74
2024/01/24 09:13:48;;;;;;;;;;;;;;;22.46;41.53;100122.00;4930493;28;99979;-74
2024/01/24 09:16:14;;;;;;;;;;;;;;;22.40;42.29;100125.34;4931336;28;99415;-74
2024/01/24 09:18:41;;;;;;;;;;;;;;;21.58;43.02;100128.69;4923737;28;98248;-67
2024/01/24 09:21:07;;;;;;;;;;;;;;;21.08;43.71;100144.44;4959325;28;98550;-67
2024/01/24 09:23:33;;;;;;;;;;;;;;;20.74;43.88;100126.56;4935222;28;98724;-74
2024/01/24 09:25:59;;;;;;;;;;;;;;;20.23;44.34;100128.81;4940322;28;98216;-73
2024/01/24 09:28:25;;;;;;;;;;;;;;;19.79;44.69;100137.47;4954405;28;99782;-67
2024/01/24 09:30:51;;;;;;;;;;;;;;;19.37;44.83;100139.44;4924677;28;99922;-73
2024/01/24 09:33:17;;;;;;;;;;;;;;;18.98;45.09;100146.97;4922506;28;99432;-73
2024/01/24 09:35:46;;;;;;;;;;;;;;;18.61;45.38;100160.28;4925239;28;98180;-67
2024/01/24 09:38:15;;;;;;;;;;;;;;;18.29;45.46;100158.97;4944566;28;97931;-67
2024/01/24 09:40:41;;;;;;;;;;;;;;;17.99;45.56;100160.81;4927587;28;98152;-73
2024/01/24 09:43:09;;;;;;;;;;;;;;;17.75;45.63;100176.88;4956391;28;98355;-67
2024/01/24 09:45:40;;;;;;;;;;;;;;;17.47;45.88;100185.34;4921282;28;98571;-66
2024/01/24 09:48:10;;;;;;;;;;;;;;;17.22;45.81;100235.97;4939798;28;98251;-73
2024/01/24 09:50:37;;;;;;;;;;;;;;;16.97;46.04;100226.59;4943339;28;98882;-73
2024/01/24 09:53:07;;;;;;;;;;;;;;;16.75;45.92;100241.09;4940382;28;98270;-73
2024/01/24 09:55:33;;;;;;;;;;;;;;;16.56;45.98;100218.72;4928842;28;98275;-67
2024/01/24 09:58:00;;;;;;;;;;;;;;;16.40;46.05;100226.50;4925019;28;99680;-73
2024/01/24 10:00:26;;;;;;;;;;;;;;;16.25;46.02;100240.47;4938992;28;99935;-67
2024/01/24 10:02:52;;;;;;;;;;;;;;;16.10;46.02;100211.75;4925462;28;98062;-67
2024/01/24 10:05:19;;;;;;;;;;;;;;;15.98;46.12;100253.09;4928676;28;97940;-68
2024/01/24 10:07:46;;;;;;;;;;;;;;;15.85;46.23;100221.34;4932083;28;97932;-73
2024/01/24 10:10:12;;;;;;;;;;;;;;;15.74;46.12;100239.78;4925387;28;98793;-67
2024/01/24 10:12:42;;;;;;;;;;;;;;;15.60;46.15;100256.13;4941067;28;99429;-66
2024/01/24 10:15:08;;;;;;;;;;;;;;;15.49;46.34;100245.78;4925663;28;98000;-72
2024/01/24 10:17:34;;;;;;;;;;;;;;;15.40;46.16;100248.38;4936420;28;102431;-71
2024/01/24 10:20:01;;;;;;;;;;;;;;;15.34;46.19;100236.84;4937548;28;98140;-72
2024/01/24 10:22:26;;;;;;;;;;;;;;;15.34;46.06;100249.63;4928449;28;98273;-66
2024/01/24 10:24:56;;;;;;;;;;;;;;;15.38;45.92;100254.13;4920484;28;98540;-66
2024/01/24 10:27:22;;;;;;;;;;;;;;;15.50;45.65;100250.88;4940393;28;99853;-72
2024/01/24 10:29:48;;;;;;;;;;;;;;;15.82;45.42;100243.69;4927208;28;98187;-67
2024/01/24 10:32:15;;;;;;;;;;;;;;;16.11;45.05;100233.22;4928802;28;98456;-67
2024/01/24 10:34:41;;;;;;;;;;;;;;;16.20;45.17;100255.00;4937635;28;106204;-67
2024/01/24 10:37:07;;;;;;;;;;;;;;;16.42;45.07;100226.97;4924099;28;98365;-72
2024/01/24 10:39:34;;;;;;;;;;;;;;;16.53;44.81;100232.94;4957677;28;100101;-72
2024/01/24 10:42:06;;;;;;;;;;;;;;;16.56;44.96;100240.50;4924505;28;97985;-72
2024/01/24 10:44:35;;;;;;;;;;;;;;;16.58;45.01;100228.16;4942332;28;98609;-72
2024/01/24 10:47:02;;;;;;;;;;;;;;;16.80;44.79;100242.88;4925628;28;98758;-73
2024/01/24 10:49:31;;;;;;;;;;;;;;;16.97;44.76;100250.28;4952992;28;97922;-67
2024/01/24 10:51:57;;;;;;;;;;;;;;;16.95;44.88;100252.53;4922232;28;99480;-72
2024/01/24 10:54:23;;;;;;;;;;;;;;;16.98;44.79;100251.91;4920751;28;98735;-72
2024/01/24 10:56:50;;;;;;;;;;;;;;;16.85;45.00;100232.63;4959958;28;98444;-66
2024/01/24 10:59:19;;;;;;;;;;;;;;;16.91;44.96;100249.66;4923440;28;100125;-72
2024/01/24 11:01:48;;;;;;;;;;;;;;;17.07;44.92;100255.47;4941613;28;98847;-72
2024/01/24 11:04:19;;;;;;;;;;;;;;;17.08;44.75;100254.34;4927467;28;99949;-67
2024/01/24 11:07:07;;;;;;;;;;;;;;;17.04;44.89;100261.53;4931688;28;98090;-73
2024/01/24 11:10:11;;;;;;;;;;;;;;;17.08;45.05;100270.69;4936166;28;98316;-67
2024/01/24 11:12:37;;;;;;;;;;;;;;;17.01;45.15;100254.00;4927786;28;98712;-72
2024/01/24 11:15:05;;;;;;;;;;;;;;;17.03;45.11;100263.47;4933638;28;103320;-67
2024/01/24 11:17:32;;;;;;;;;;;;;;;17.08;44.99;100257.06;4939273;28;98245;-72
2024/01/24 11:20:07;;;;;;;;;;;;;;;17.33;44.70;100259.06;4910714;28;120718;-72
2024/01/24 11:22:34;;;;;;;;;;;;;;;17.29;44.91;100258.09;4956595;28;98002;-72
2024/01/24 11:25:00;;;;;;;;;;;;;;;17.17;44.98;100277.78;4939559;28;99728;-72
2024/01/24 11:27:32;;;;;;;;;;;;;;;17.35;44.92;100275.88;4923507;28;98239;-67
2024/01/24 11:30:00;;;;;;;;;;;;;;;17.36;44.82;100295.75;4955995;28;98538;-72
2024/01/24 11:32:45;;;;;;;;;;;;;;;17.32;44.84;100290.13;4955553;28;98712;-72
2024/01/24 11:35:34;;;;;;;;;;;;;;;17.21;45.18;100280.66;4959112;28;98114;-72
2024/01/24 11:38:22;;;;;;;;;;;;;;;17.22;45.17;100301.34;4952468;28;98034;-67
2024/01/24 11:40:51;;;;;;;;;;;;;;;17.17;45.18;100313.19;4954750;28;99703;-72
2024/01/24 11:43:27;;;;;;;;;;;;;;;17.16;45.06;100297.13;4935749;28;97931;-72
2024/01/24 11:45:55;;;;;;;;;;;;;;;17.15;45.17;100292.81;4939565;28;98005;-72
2024/01/24 11:48:21;;;;;;;;;;;;;;;17.11;45.20;100289.91;4927672;28;100181;-72
2024/01/24 11:50:55;;;;;;;;;;;;;;;17.01;45.25;100289.38;4937641;28;98587;-67
2024/01/24 11:53:21;;;;;;;;;;;;;;;16.98;45.27;100295.47;4927128;28;102486;-67
2024/01/24 11:55:58;;;;;;;;;;;;;;;16.88;45.29;100300.06;4941064;28;98736;-67
2024/01/24 11:58:28;;;;;;;;;;;;;;;16.86;45.39;100294.16;4924107;28;98176;-72
2024/01/24 12:00:55;;;;;;;;;;;;;;;16.84;45.38;100285.47;4934403;28;98069;-72
2024/01/24 12:03:21;;;;;;;;;;;;;;;16.99;45.05;100313.41;4941975;28;98526;-66
2024/01/24 12:05:48;;;;;;;;;;;;;;;17.11;44.97;100317.16;4957532;28;111426;-66
2024/01/24 12:08:14;;;;;;;;;;;;;;;17.13;45.16;100319.53;4927904;28;99476;-72
2024/01/24 12:10:40;;;;;;;;;;;;;;;17.22;44.91;100319.59;4925174;28;98374;-67
2024/01/24 12:13:07;;;;;;;;;;;;;;;17.30;45.05;100291.59;4953540;28;98235;-66
2024/01/24 12:15:33;;;;;;;;;;;;;;;17.19;45.06;100304.69;4925540;28;99845;-72
2024/01/24 12:18:13;;;;;;;;;;;;;;;17.11;45.31;100302.72;4938632;28;98360;-66
2024/01/24 12:20:44;;;;;;;;;;;;;;;17.01;45.40;100303.81;4925565;28;107412;-67
2024/01/24 12:23:10;;;;;;;;;;;;;;;17.15;45.29;100309.16;4922374;28;98636;-72
2024/01/24 12:25:36;;;;;;;;;;;;;;;17.33;45.17;100310.81;4923923;28;128421;-66
2024/01/24 12:28:02;;;;;;;;;;;;;;;17.39;45.19;100304.09;4925997;28;98212;-67
2024/01/24 12:30:34;;;;;;;;;;;;;;;17.60;44.80;100314.41;4943017;28;98074;-66
2024/01/24 12:33:03;;;;;;;;;;;;;;;17.66;44.97;100319.38;4936763;28;98758;-73
2024/01/24 12:35:29;;;;;;;;;;;;;;;17.64;45.02;100302.56;4924042;28;99176;-67